Time;durP1;ratioP1;P1;durP2;ratioP2;P2;SDS_P1;SDS_P2;PMS_P1;PMS_P2;Temp;Humidity;BMP_temperature;BMP_pressure;BME280_temperature;BME280_humidity;BME280_pressure;Samples;Min_cycle;Max_cycle;Signal;HPM_P1;HPM_P2
2022/05/08 00:12:09;;;;;;;;;;;;;;;;;;;;;
2022/05/08 01:24:08;;;;;;;;;;;;;;;;;;;;;
2022/05/08 01:27:19;;;;;;;44.03;29.70;;;7.50;99.90;;;;;;6383031;22;20215;-89
2022/05/08 01:35:45;;;;;;;;;;;;;;;;;;;;;
2022/05/08 01:43:34;;;;;;;;;;;;;;;;;;;;;
2022/05/08 01:55:56;;;;;;;;;;;;;;;;;;;;;
2022/05/08 01:59:28;;;;;;;;;;;;;;;;;;;;;
2022/05/08 02:11:10;;;;;;;;;;;;;;;;;;;;;
2022/05/08 02:15:24;;;;;;;;;;;;;;;;;;;;;
2022/05/08 02:22:13;;;;;;;;;;;;;;;;;;;;;
2022/05/08 02:33:59;;;;;;;;;;;;;;;;;;;;;
2022/05/08 02:46:21;;;;;;;;;;;;;;;;;;;;;
2022/05/08 02:49:58;;;;;;;;;;;;;;;;;;;;;
2022/05/08 02:53:51;;;;;;;;;;;;;;;;;;;;;
2022/05/08 03:01:49;;;;;;;;;;;;;;;;;;;;;
2022/05/08 03:04:45;;;;;;;59.20;35.47;;;7.00;99.90;;;;;;5942646;24;20025;-89
2022/05/08 03:08:17;;;;;;;51.25;35.03;;;7.00;99.90;;;;;;5961318;23;20035;-89
2022/05/08 03:16:18;;;;;;;54.20;36.80;;;6.90;99.90;;;;;;5955720;24;20033;-91
2022/05/08 03:24:41;;;;;;;55.15;37.13;;;6.90;99.90;;;;;;6015429;23;20126;-91
2022/05/08 03:28:16;;;;;;;;;;;;;;;;;;;;;
2022/05/08 03:40:07;;;;;;;;;;;;;;;;;;;;;
2022/05/08 03:59:43;;;;;;;;;;;;;;;;;;;;;
2022/05/08 05:16:43;;;;;;;52.35;36.72;;;7.20;99.90;;;;;;6161201;23;20386;-88
2022/05/08 05:19:50;;;;;;;54.97;37.17;;;7.30;99.90;;;;;;6202923;23;20186;-91
2022/05/08 05:22:50;;;;;;;55.83;37.20;;;7.40;99.90;;;;;;6227216;23;20024;-88
2022/05/08 05:30:31;;;;;;;48.40;34.55;;;7.60;99.90;;;;;;6162352;23;20095;-90
2022/05/08 05:41:42;;;;;;;45.20;33.55;;;7.90;99.90;;;;;;6128117;23;20349;-89
2022/05/08 05:44:48;;;;;;;41.08;33.08;;;8.10;99.90;;;;;;6131223;23;20037;-87
2022/05/08 05:56:21;;;;;;;;;;;;;;;;;;;;;
2022/05/08 06:00:22;;;;;;;36.25;29.17;;;8.30;99.90;;;;;;6027852;23;20056;-87
2022/05/08 06:17:01;;;;;;;29.45;22.15;;;9.50;99.90;;;;;;6127393;23;20009;-92
2022/05/08 06:26:15;;;;;;;26.17;20.40;;;9.60;99.90;;;;;;5995072;23;20023;-90
2022/05/08 06:49:40;;;;;;;20.52;17.40;;;10.60;99.90;;;;;;6223159;23;20031;-87
2022/05/08 07:05:29;;;;;;;21.13;17.13;;;11.70;99.90;;;;;;6097668;23;20468;-86
2022/05/08 07:12:46;;;;;;;18.52;15.57;;;11.90;99.90;;;;;;5984927;23;20040;-89
2022/05/08 07:16:07;;;;;;;22.63;17.17;;;12.20;99.90;;;;;;5984804;23;20097;-86
2022/05/08 07:23:43;;;;;;;21.70;18.23;;;13.40;99.90;;;;;;5981398;23;20119;-88
2022/05/08 07:27:23;;;;;;;20.17;17.88;;;14.20;99.90;;;;;;6037969;23;20074;-87
2022/05/08 07:38:16;;;;;;;16.48;14.68;;;14.90;99.90;;;;;;6109417;23;20050;-88
2022/05/08 07:41:28;;;;;;;19.67;15.75;;;15.20;99.90;;;;;;6094188;23;20026;-90
2022/05/08 07:44:15;;;;;;;16.70;13.85;;;15.70;99.90;;;;;;6099587;23;20058;-91
2022/05/08 07:47:07;;;;;;;17.90;15.23;;;16.00;99.90;;;;;;6111615;23;20026;-90
2022/05/08 07:50:40;;;;;;;20.60;15.40;;;15.90;99.90;;;;;;6084206;23;20030;-90
2022/05/08 07:54:18;;;;;;;20.10;17.38;;;15.70;99.90;;;;;;5986174;23;20061;-90
2022/05/08 07:57:38;;;;;;;;;;;;;;;;;;;;;
2022/05/08 08:05:01;;;;;;;18.38;14.90;;;15.60;99.90;;;;;;6003350;23;20086;-89
2022/05/08 08:17:10;;;;;;;15.50;13.55;;;16.70;99.90;;;;;;6103254;23;20021;-89
2022/05/08 08:20:03;;;;;;;13.68;11.95;;;17.00;99.90;;;;;;6140064;23;20014;-88
2022/05/08 08:22:53;;;;;;;14.98;12.32;;;17.10;99.90;;;;;;6139442;23;20021;-87
2022/05/08 08:25:48;;;;;;;16.05;12.43;;;17.40;99.90;;;;;;6179772;23;20099;-87
2022/05/08 08:28:49;;;;;;;13.65;11.68;;;17.80;99.90;;;;;;6223197;22;20035;-87
2022/05/08 08:31:54;;;;;;;13.55;11.70;;;18.00;99.90;;;;;;6187325;23;20028;-88
2022/05/08 08:34:46;;;;;;;;;;;18.30;99.90;;;;;;6217128;23;20021;-88
2022/05/08 08:37:44;;;;;;;14.13;10.68;;;18.70;99.90;;;;;;6218581;23;19915;-89
2022/05/08 08:41:03;;;;;;;14.73;10.75;;;19.00;99.90;;;;;;6218990;23;20054;-90
2022/05/08 08:50:18;;;;;;;13.02;9.40;;;19.20;99.90;;;;;;6217914;23;20238;-88
2022/05/08 08:53:08;;;;;;;10.40;8.57;;;19.60;99.90;;;;;;6216757;23;20353;-90
2022/05/08 08:56:33;;;;;;;11.82;8.40;;;19.80;97.80;;;;;;6218428;23;20332;-88
2022/05/08 08:59:50;;;;;;;12.25;9.00;;;19.80;96.60;;;;;;6215825;23;20091;-88
2022/05/08 09:02:38;;;;;;;9.43;7.25;;;20.10;96.80;;;;;;6196266;23;20094;-90
2022/05/08 09:05:30;;;;;;;8.82;7.03;;;20.40;96.60;;;;;;6215481;23;20028;-91
2022/05/08 09:08:37;;;;;;;8.23;7.10;;;21.30;94.30;;;;;;6224752;23;20059;-87
2022/05/08 09:11:35;;;;;;;9.95;7.03;;;21.80;90.50;;;;;;6231919;23;20084;-90
2022/05/08 09:14:33;;;;;;;11.27;7.80;;;22.60;90.20;;;;;;6230455;23;20025;-89
2022/05/08 09:17:22;;;;;;;9.02;7.45;;;22.90;78.90;;;;;;6209151;23;20028;-89
2022/05/08 09:20:43;;;;;;;14.77;7.88;;;21.90;75.50;;;;;;6231418;23;20087;-90
2022/05/08 09:23:33;;;;;;;9.43;6.70;;;21.90;77.30;;;;;;6194978;23;20012;-84
2022/05/08 09:26:26;;;;;;;10.57;7.68;;;22.40;76.50;;;;;;6239346;23;20009;-87
2022/05/08 09:29:23;;;;;;;9.35;6.80;;;22.40;77.60;;;;;;6238674;23;20019;-82
2022/05/08 09:32:42;;;;;;;9.50;6.45;;;22.40;76.10;;;;;;6235976;23;20059;-87
2022/05/08 09:35:45;;;;;;;8.10;6.25;;;22.40;75.80;;;;;;6237293;23;20085;-89
2022/05/08 09:38:48;;;;;;;9.13;5.32;;;22.80;74.40;;;;;;6238098;23;20013;-88
2022/05/08 09:41:53;;;;;;;8.35;5.25;;;23.30;71.50;;;;;;6216911;23;20020;-90
2022/05/08 09:45:07;;;;;;;9.35;5.65;;;24.00;68.40;;;;;;6234186;23;20021;-88
2022/05/08 09:47:57;;;;;;;8.68;5.38;;;23.70;63.30;;;;;;6208698;23;20052;-87
2022/05/08 09:51:07;;;;;;;7.95;4.90;;;23.50;62.00;;;;;;6226514;23;20025;-89
2022/05/08 09:53:57;;;;;;;7.43;5.30;;;24.30;63.50;;;;;;6228322;23;20017;-89
2022/05/08 09:56:53;;;;;;;11.68;5.25;;;24.30;59.40;;;;;;6226238;23;20068;-85
2022/05/08 09:59:42;;;;;;;7.35;5.00;;;23.80;60.00;;;;;;6198815;23;20412;-88
2022/05/08 10:02:31;;;;;;;6.97;4.68;;;23.90;60.30;;;;;;6221074;23;20040;-89
2022/05/08 10:05:21;;;;;;;6.40;5.00;;;23.10;58.50;;;;;;6220438;23;20029;-89
2022/05/08 10:08:12;;;;;;;7.00;5.28;;;23.20;60.80;;;;;;6193883;23;20363;-89
2022/05/08 10:14:25;;;;;;;6.65;4.40;;;24.30;60.40;;;;;;6220204;23;20032;-88
2022/05/08 10:17:29;;;;;;;6.57;5.00;;;24.70;55.90;;;;;;6219955;23;20025;-89
2022/05/08 10:20:56;;;;;;;9.52;4.38;;;24.00;56.80;;;;;;6198299;23;20384;-86
2022/05/08 10:23:48;;;;;;;5.97;4.60;;;23.30;56.60;;;;;;6197950;23;20035;-90
2022/05/08 10:26:37;;;;;;;6.88;4.70;;;23.20;59.00;;;;;;6217369;23;20017;-88
2022/05/08 10:29:25;;;;;;;6.40;4.50;;;23.70;57.80;;;;;;6215765;23;20324;-89
2022/05/08 10:32:33;;;;;;;4.90;4.32;;;23.90;56.60;;;;;;6219368;23;20287;-88
2022/05/08 10:35:23;;;;;;;6.80;5.03;;;23.50;58.50;;;;;;6198870;23;20036;-90
2022/05/08 10:38:24;;;;;;;7.38;4.90;;;23.50;58.10;;;;;;6198860;23;20032;-88
2022/05/08 10:41:44;;;;;;;6.35;4.43;;;23.60;57.30;;;;;;6219642;23;20069;-87
2022/05/08 10:44:37;;;;;;;9.23;4.50;;;23.90;56.80;;;;;;6202715;23;20027;-90
2022/05/08 10:47:36;;;;;;;7.80;5.45;;;23.90;58.10;;;;;;6219657;23;20020;-89
2022/05/08 10:50:24;;;;;;;7.07;4.60;;;24.90;55.80;;;;;;6221552;23;20047;-90
2022/05/08 10:53:39;;;;;;;8.98;5.45;;;25.00;56.40;;;;;;6226228;23;20047;-89
2022/05/08 10:56:27;;;;;;;5.53;4.57;;;25.00;54.60;;;;;;6233549;23;20074;-87
2022/05/08 10:59:19;;;;;;;6.25;4.65;;;25.50;54.70;;;;;;6209915;23;20048;-88
2022/05/08 11:02:06;;;;;;;11.30;5.28;;;25.70;53.90;;;;;;6198947;23;20025;-88
2022/05/08 11:04:54;;;;;;;6.97;4.53;;;24.90;54.30;;;;;;6195034;23;20024;-87
2022/05/08 11:07:51;;;;;;;6.90;4.05;;;25.00;54.20;;;;;;6197490;23;20047;-89
2022/05/08 11:10:42;;;;;;;;;;;25.10;52.80;;;;;;6220032;23;20051;-90
2022/05/08 11:13:52;;;;;;;3.70;3.40;;;25.50;51.60;;;;;;6221174;23;19927;-86
2022/05/08 11:16:45;;;;;;;7.32;3.60;;;25.90;51.70;;;;;;6219331;23;20362;-90
2022/05/08 11:19:53;;;;;;;3.78;3.25;;;25.60;51.80;;;;;;6200803;23;20024;-89
2022/05/08 11:22:57;;;;;;;6.43;3.20;;;24.80;51.30;;;;;;6199240;23;20281;-88
2022/05/08 11:26:05;;;;;;;6.53;3.00;;;25.50;51.40;;;;;;6201403;23;20028;-88
2022/05/08 11:28:57;;;;;;;3.45;2.95;;;25.60;51.40;;;;;;6195003;23;20024;-89
2022/05/08 11:36:04;;;;;;;5.15;3.13;;;25.80;51.20;;;;;;6219987;23;20032;-87
2022/05/08 11:38:17;;;;;;;5.07;2.58;;;27.50;48.90;;;;;;6218626;23;20100;-87
2022/05/08 11:41:10;;;;;;;6.88;3.17;;;27.60;48.10;;;;;;6217874;23;20072;-88
2022/05/08 11:44:01;;;;;;;3.78;2.90;;;26.00;47.60;;;;;;6214924;23;20016;-88
2022/05/08 11:46:57;;;;;;;3.90;3.10;;;25.10;50.70;;;;;;6194812;23;20025;-89
2022/05/08 11:49:45;;;;;;;2.92;2.50;;;24.10;51.00;;;;;;6197409;23;20024;-89
2022/05/08 11:52:33;;;;;;;6.07;3.10;;;22.80;55.50;;;;;;6219298;23;20083;-90
2022/05/08 11:55:21;;;;;;;5.03;3.30;;;22.50;57.30;;;;;;6193529;23;20043;-86
2022/05/08 11:58:08;;;;;;;5.15;3.50;;;22.30;57.50;;;;;;6196967;23;20024;-90
2022/05/08 12:00:58;;;;;;;5.05;3.58;;;21.70;58.00;;;;;;6198005;23;20319;-87
2022/05/08 12:03:45;;;;;;;4.38;3.20;;;22.00;59.10;;;;;;6199619;23;20028;-87
2022/05/08 12:07:13;;;;;;;4.43;3.80;;;23.20;57.50;;;;;;6226436;23;20111;-88
2022/05/08 12:10:01;;;;;;;5.95;3.20;;;24.10;54.70;;;;;;6219710;23;20025;-87
2022/05/08 12:13:06;;;;;;;4.22;3.78;;;23.60;54.00;;;;;;6224783;23;20021;-88
2022/05/08 12:16:11;;;;;;;5.28;3.67;;;22.30;56.70;;;;;;6223280;23;20024;-89
2022/05/08 12:19:16;;;;;;;4.43;3.88;;;22.00;57.10;;;;;;6202770;23;20055;-90
2022/05/08 12:22:21;;;;;;;5.75;4.15;;;21.60;59.10;;;;;;6199354;23;20314;-88
2022/05/08 12:25:08;;;;;;;4.40;3.55;;;21.40;60.20;;;;;;6221422;23;20063;-86
2022/05/08 12:27:56;;;;;;;3.28;2.85;;;21.90;58.80;;;;;;6196718;23;20120;-88
2022/05/08 12:30:43;;;;;;;5.80;3.25;;;21.80;57.90;;;;;;6216249;23;20063;-87
2022/05/08 12:33:38;;;;;;;5.13;3.00;;;21.50;58.00;;;;;;6219460;23;20020;-89
2022/05/08 12:36:25;;;;;;;4.25;3.33;;;21.20;60.20;;;;;;6217756;23;20020;-88
2022/05/08 12:39:12;;;;;;;4.85;3.33;;;21.50;62.30;;;;;;6215704;23;20038;-90
2022/05/08 12:41:59;;;;;;;5.25;3.58;;;22.00;60.70;;;;;;6214706;23;20056;-87
2022/05/08 12:44:47;;;;;;;5.15;3.38;;;22.50;59.00;;;;;;6195895;23;20032;-89
2022/05/08 12:47:38;;;;;;;6.53;3.13;;;22.70;57.70;;;;;;6215943;23;20025;-88
2022/05/08 12:50:28;;;;;;;3.15;2.83;;;22.90;58.60;;;;;;6218902;23;20081;-89
2022/05/08 12:53:15;;;;;;;3.03;2.80;;;22.60;56.80;;;;;;6193722;23;20028;-89
2022/05/08 12:56:03;;;;;;;4.75;3.45;;;22.90;57.00;;;;;;6218058;23;20340;-86
2022/05/08 13:01:56;;;;;;;6.45;2.85;;;22.80;57.10;;;;;;6217139;23;20134;-90
2022/05/08 13:04:50;;;;;;;6.40;2.47;;;24.50;54.50;;;;;;6216817;23;20108;-89
2022/05/08 13:07:37;;;;;;;4.20;2.78;;;25.90;50.50;;;;;;6197123;23;20032;-86
2022/05/08 13:10:28;;;;;;;6.30;3.50;;;26.30;48.30;;;;;;6195525;23;20048;-87
2022/05/08 13:13:19;;;;;;;2.60;2.40;;;27.40;46.80;;;;;;6218367;23;20024;-87
2022/05/08 13:16:11;;;;;;;3.22;2.58;;;27.20;45.70;;;;;;6206397;23;20029;-89
2022/05/08 13:18:58;;;;;;;8.50;3.10;;;26.20;47.60;;;;;;6232639;23;20116;-89
2022/05/08 13:21:46;;;;;;;4.55;2.63;;;25.80;47.50;;;;;;6232339;23;20025;-90
2022/05/08 13:24:38;;;;;;;3.65;2.63;;;26.00;46.60;;;;;;6214926;23;20020;-88
2022/05/08 13:27:25;;;;;;;5.32;2.97;;;26.10;46.10;;;;;;6230601;23;20016;-85
2022/05/08 13:30:15;;;;;;;7.75;3.00;;;25.50;47.60;;;;;;6234890;23;20075;-86
2022/05/08 13:33:03;;;;;;;5.68;2.97;;;25.40;48.10;;;;;;6238124;23;20045;-90
2022/05/08 13:35:54;;;;;;;6.30;2.90;;;26.10;48.00;;;;;;6237402;23;20051;-86
2022/05/08 13:38:45;;;;;;;5.25;3.28;;;26.10;46.80;;;;;;6238199;23;20008;-84
2022/05/08 13:41:33;;;;;;;4.00;2.70;;;24.80;49.30;;;;;;6237683;23;20135;-90
2022/05/08 13:44:33;;;;;;;;;;;;;;;;;;;;;
2022/05/08 13:47:42;;;;;;;4.90;2.70;;;24.20;50.70;;;;;;6231487;23;20024;-88
2022/05/08 13:50:31;;;;;;;11.75;6.45;;;24.10;49.90;;;;;;6226619;23;20399;-90
2022/05/08 13:53:39;;;;;;;4.45;3.03;;;23.30;49.30;;;;;;6204986;23;20056;-90
2022/05/08 13:56:44;;;;;;;;;;;;;;;;;;;;;
2022/05/08 13:59:38;;;;;;;3.67;3.13;;;22.60;53.10;;;;;;6221990;23;20032;-90
2022/05/08 14:02:26;;;;;;;4.97;3.60;;;22.80;53.80;;;;;;6221054;23;20297;-90
2022/05/08 14:05:14;;;;;;;3.65;3.05;;;22.80;54.20;;;;;;6219688;23;20491;-88
2022/05/08 14:08:03;;;;;;;4.63;3.78;;;22.70;53.20;;;;;;6195598;23;20024;-90
2022/05/08 14:10:50;;;;;;;6.72;3.30;;;22.50;53.30;;;;;;6198298;23;20454;-89
2022/05/08 14:13:40;;;;;;;5.97;3.10;;;22.50;53.20;;;;;;6230269;23;20024;-86
2022/05/08 14:16:27;;;;;;;5.63;3.42;;;22.90;54.90;;;;;;6204206;23;20032;-87
2022/05/08 14:19:15;;;;;;;8.93;3.38;;;21.80;54.10;;;;;;6198742;23;20136;-87
2022/05/08 14:22:05;;;;;;;6.03;4.00;;;21.40;55.90;;;;;;6216719;23;20051;-88
2022/05/08 14:24:53;;;;;;;4.57;3.67;;;21.00;58.20;;;;;;6220462;23;20025;-90
2022/05/08 14:27:44;;;;;;;4.88;3.40;;;21.10;59.50;;;;;;6215705;23;20020;-87
2022/05/08 14:30:31;;;;;;;5.07;3.08;;;21.30;57.70;;;;;;6216633;23;20029;-86
2022/05/08 14:36:45;;;;;;;5.95;3.95;;;21.00;58.20;;;;;;6126689;23;20125;-89
2022/05/08 14:39:33;;;;;;;9.65;3.85;;;20.10;57.70;;;;;;6218832;23;20025;-88
2022/05/08 14:42:20;;;;;;;6.38;3.35;;;19.60;59.40;;;;;;6218416;23;20052;-86
2022/05/08 14:45:08;;;;;;;6.60;3.70;;;19.20;61.10;;;;;;6199188;23;20024;-88
2022/05/08 14:47:59;;;;;;;5.13;3.30;;;19.00;61.80;;;;;;6197772;23;20084;-86
2022/05/08 14:50:54;;;;;;;4.40;3.42;;;19.00;64.00;;;;;;6218775;23;20448;-90
2022/05/08 14:53:44;;;;;;;3.97;3.53;;;19.00;64.50;;;;;;6216992;23;20035;-91
2022/05/08 14:56:56;;;;;;;4.22;3.65;;;19.10;64.60;;;;;;6098454;23;20027;-89
2022/05/08 14:59:50;;;;;;;4.30;3.60;;;19.10;65.30;;;;;;6080360;23;20030;-89
2022/05/08 15:02:40;;;;;;;5.45;4.32;;;19.10;65.80;;;;;;6080094;23;20101;-86
2022/05/08 15:05:29;;;;;;;6.60;3.95;;;19.20;66.80;;;;;;6099667;23;20154;-89
2022/05/08 15:08:23;;;;;;;5.80;4.47;;;19.20;68.70;;;;;;6097217;23;20142;-90
2022/05/08 15:11:18;;;;;;;3.92;3.50;;;19.30;68.80;;;;;;6099298;23;20041;-89
2022/05/08 15:14:52;;;;;;;7.63;3.90;;;19.80;67.40;;;;;;6086753;23;20033;-87
2022/05/08 15:21:04;;;;;;;5.22;3.10;;;22.10;56.80;;;;;;6221740;23;20044;-87
2022/05/08 15:23:51;;;;;;;3.47;2.60;;;22.50;55.30;;;;;;6217756;23;20024;-89
2022/05/08 15:26:39;;;;;;;3.85;2.55;;;22.60;53.40;;;;;;6195272;23;20029;-87
2022/05/08 15:29:36;;;;;;;4.38;3.25;;;21.70;53.50;;;;;;6198433;23;20032;-89
2022/05/08 15:32:24;;;;;;;3.80;2.97;;;21.60;55.10;;;;;;6197759;23;20358;-91
2022/05/08 15:35:11;;;;;;;3.92;2.83;;;21.50;54.50;;;;;;6198157;23;20094;-89
2022/05/08 15:37:58;;;;;;;6.13;2.90;;;21.70;54.20;;;;;;6219242;23;20161;-88
2022/05/08 15:40:48;;;;;;;4.45;3.10;;;21.50;55.50;;;;;;6217604;23;20024;-90
2022/05/08 15:43:36;;;;;;;4.82;2.72;;;21.30;55.60;;;;;;6217217;23;20048;-91
2022/05/08 15:46:23;;;;;;;4.90;2.75;;;21.50;56.30;;;;;;6192692;23;20604;-87
2022/05/08 15:49:11;;;;;;;3.65;2.90;;;21.80;56.70;;;;;;6218840;23;20443;-87
2022/05/08 15:52:00;;;;;;;3.17;2.88;;;21.80;56.00;;;;;;6196282;23;20096;-87
2022/05/08 15:54:48;;;;;;;4.93;3.30;;;21.60;56.30;;;;;;6217358;23;20031;-90
2022/05/08 15:57:45;;;;;;;8.88;3.17;;;21.50;56.70;;;;;;6218995;23;20578;-88
2022/05/08 16:00:32;;;;;;;4.72;3.85;;;21.40;57.70;;;;;;6199124;23;20021;-88
2022/05/08 16:03:20;;;;;;;3.53;3.10;;;21.40;58.60;;;;;;6221623;23;20028;-90
2022/05/08 16:06:11;;;;;;;4.90;3.05;;;21.50;58.00;;;;;;6201136;23;20028;-91
2022/05/08 16:09:18;;;;;;;5.68;2.95;;;21.60;57.60;;;;;;6228854;23;20071;-87
2022/05/08 16:12:09;;;;;;;6.10;3.40;;;21.60;57.90;;;;;;6224469;23;20024;-90
2022/05/08 16:24:28;;;;;;;4.50;3.20;;;20.90;60.20;;;;;;6221591;23;20032;-88
2022/05/08 16:27:17;;;;;;;3.50;3.20;;;21.40;59.40;;;;;;6220169;23;20056;-90
2022/05/08 16:30:08;;;;;;;4.20;3.22;;;21.20;59.00;;;;;;6199231;23;20116;-91
2022/05/08 16:32:56;;;;;;;4.63;3.27;;;21.20;60.10;;;;;;6220965;23;20124;-85
2022/05/08 16:35:53;;;;;;;4.47;3.00;;;21.10;59.70;;;;;;6228001;23;20236;-87
2022/05/08 16:38:44;;;;;;;6.00;3.50;;;21.30;58.90;;;;;;6224100;23;20044;-89
2022/05/08 16:41:32;;;;;;;4.35;3.10;;;21.00;58.80;;;;;;6224874;23;20040;-89
2022/05/08 16:44:20;;;;;;;4.43;3.35;;;20.60;62.10;;;;;;6223911;23;20397;-90
2022/05/08 16:47:11;;;;;;;7.90;3.10;;;20.40;61.20;;;;;;6221436;23;20036;-88
2022/05/08 16:50:04;;;;;;;5.53;3.40;;;20.00;61.90;;;;;;6221111;23;20104;-89
2022/05/08 16:52:51;;;;;;;3.78;3.40;;;20.00;61.90;;;;;;6225774;23;20028;-91
2022/05/08 16:55:41;;;;;;;3.72;3.05;;;19.80;65.20;;;;;;6204225;23;20025;-93
2022/05/08 16:58:28;;;;;;;6.47;3.47;;;19.70;64.10;;;;;;6226325;23;20087;-93
2022/05/08 17:01:15;;;;;;;5.10;3.00;;;19.70;67.80;;;;;;6212369;23;20038;-90
2022/05/08 17:04:04;;;;;;;4.40;3.05;;;19.70;65.90;;;;;;6235112;23;20047;-90
2022/05/08 17:06:52;;;;;;;10.35;3.20;;;19.60;66.50;;;;;;6192759;23;20043;-90
2022/05/08 17:09:39;;;;;;;6.68;3.65;;;19.40;66.90;;;;;;6223584;23;20025;-90
2022/05/08 17:12:34;;;;;;;5.25;3.20;;;19.20;67.30;;;;;;6225350;23;20020;-91
2022/05/08 17:15:26;;;;;;;9.15;3.28;;;19.10;68.10;;;;;;6225630;23;20075;-91
2022/05/08 17:18:16;;;;;;;5.85;3.85;;;19.00;66.80;;;;;;6224616;23;20021;-90
2022/05/08 17:21:04;;;;;;;3.83;2.90;;;18.90;68.00;;;;;;6223499;23;20025;-89
2022/05/08 17:23:51;;;;;;;10.43;6.18;;;18.80;68.70;;;;;;6226110;23;20080;-90
2022/05/08 17:29:54;;;;;;;4.40;3.30;;;18.60;71.00;;;;;;6221841;23;20025;-90
2022/05/08 17:32:47;;;;;;;9.30;5.75;;;18.40;69.40;;;;;;6227004;23;20025;-89
2022/05/08 17:35:40;;;;;;;6.13;4.68;;;18.30;74.00;;;;;;6234614;23;20047;-90
2022/05/08 17:38:33;;;;;;;5.22;3.88;;;18.20;73.70;;;;;;6236566;23;20083;-82
2022/05/08 17:41:23;;;;;;;5.53;3.75;;;18.10;73.00;;;;;;6239301;23;20430;-88
2022/05/08 17:44:11;;;;;;;3.72;3.40;;;18.00;74.50;;;;;;6222650;23;20025;-86
2022/05/08 17:46:58;;;;;;;8.13;4.43;;;17.90;76.40;;;;;;6203865;23;20048;-86
2022/05/08 17:49:48;;;;;;;5.32;4.10;;;17.70;77.00;;;;;;6223755;23;20284;-85
2022/05/08 17:52:37;;;;;;;5.97;3.85;;;17.60;77.20;;;;;;6221974;23;20052;-86
2022/05/08 17:55:27;;;;;;;5.50;4.00;;;17.50;77.80;;;;;;6229628;23;20028;-85
2022/05/08 17:58:17;;;;;;;4.50;3.88;;;17.40;78.10;;;;;;6226564;23;20024;-85
2022/05/08 18:01:04;;;;;;;5.05;3.65;;;17.40;79.50;;;;;;6219782;23;20063;-86
2022/05/08 18:07:00;;;;;;;6.63;4.10;;;17.20;82.40;;;;;;6221480;23;20028;-88
2022/05/08 18:09:49;;;;;;;6.07;3.90;;;17.00;83.90;;;;;;6200705;23;20056;-90
2022/05/08 18:12:37;;;;;;;8.35;4.28;;;16.90;83.80;;;;;;6225659;23;20028;-88
2022/05/08 18:15:27;;;;;;;5.13;3.75;;;16.80;84.40;;;;;;6202757;23;20020;-87
2022/05/08 18:18:15;;;;;;;6.50;3.67;;;16.70;86.00;;;;;;6222594;23;20020;-88
2022/05/08 18:21:04;;;;;;;5.20;3.83;;;16.60;87.00;;;;;;6222172;23;20094;-86
2022/05/08 18:23:58;;;;;;;5.68;4.22;;;16.50;88.00;;;;;;6200120;23;20431;-89
2022/05/08 18:26:47;;;;;;;7.00;4.40;;;16.40;87.70;;;;;;6223555;23;20044;-89
2022/05/08 18:29:34;;;;;;;8.00;4.03;;;16.30;90.20;;;;;;6198510;23;20472;-88
2022/05/08 18:32:22;;;;;;;7.70;3.80;;;16.20;91.60;;;;;;6217411;23;20087;-86
2022/05/08 18:35:09;;;;;;;5.28;4.47;;;16.10;91.20;;;;;;6223323;23;20086;-89
2022/05/08 18:37:57;;;;;;;7.15;5.47;;;16.00;92.40;;;;;;6227874;23;20059;-88
2022/05/08 18:40:44;;;;;;;5.75;4.45;;;15.90;92.80;;;;;;6214010;23;20016;-87
2022/05/08 18:43:32;;;;;;;5.93;4.32;;;15.90;94.60;;;;;;6233831;23;20028;-88
2022/05/08 18:46:19;;;;;;;6.65;5.00;;;15.80;95.90;;;;;;6226681;23;20028;-89
2022/05/08 18:49:22;;;;;;;7.55;5.25;;;15.80;95.50;;;;;;6223554;23;20032;-88
2022/05/08 18:52:12;;;;;;;8.10;5.72;;;15.80;96.80;;;;;;6220766;23;20024;-88
2022/05/08 18:55:03;;;;;;;6.93;5.30;;;15.80;97.30;;;;;;6221251;23;20032;-88
2022/05/08 18:57:52;;;;;;;7.25;5.22;;;15.80;99.90;;;;;;6223036;23;20039;-85
2022/05/08 19:00:39;;;;;;;5.30;4.55;;;15.70;99.90;;;;;;6203237;23;20035;-87
2022/05/08 19:03:28;;;;;;;7.35;4.95;;;15.70;99.90;;;;;;6224425;23;20296;-86
2022/05/08 19:06:19;;;;;;;8.27;5.00;;;15.70;99.90;;;;;;6226632;23;20039;-89
2022/05/08 19:09:08;;;;;;;6.88;5.32;;;15.60;99.90;;;;;;6206157;23;20036;-88
2022/05/08 19:11:56;;;;;;;5.97;5.05;;;15.60;99.90;;;;;;6226756;23;20036;-86
2022/05/08 19:14:44;;;;;;;6.70;4.97;;;15.60;99.90;;;;;;6222269;23;20035;-86
2022/05/08 19:17:34;;;;;;;7.60;5.07;;;15.50;99.90;;;;;;6218022;23;20025;-88
2022/05/08 19:20:22;;;;;;;8.50;5.35;;;15.50;99.90;;;;;;6196134;23;20025;-89
2022/05/08 19:23:09;;;;;;;6.85;5.53;;;15.40;99.90;;;;;;6198930;23;20040;-85
2022/05/08 19:25:58;;;;;;;8.15;5.38;;;15.40;99.90;;;;;;6223402;23;20021;-86
2022/05/08 19:28:48;;;;;;;7.50;5.80;;;15.30;99.90;;;;;;6209003;23;20082;-83
2022/05/08 19:37:59;;;;;;;7.00;5.65;;;15.20;99.90;;;;;;6231519;23;20025;-85
2022/05/08 19:40:48;;;;;;;8.38;5.53;;;15.10;99.90;;;;;;6206955;23;20451;-86
2022/05/08 19:43:38;;;;;;;6.43;5.82;;;15.10;99.90;;;;;;6204010;23;20036;-85
2022/05/08 19:46:29;;;;;;;7.60;6.05;;;15.10;99.90;;;;;;6203622;23;20029;-87
2022/05/08 19:49:21;;;;;;;6.13;5.32;;;15.00;99.90;;;;;;6209490;23;20120;-84
2022/05/08 19:52:12;;;;;;;6.32;5.63;;;15.00;99.90;;;;;;6231438;23;20079;-85
2022/05/08 19:55:02;;;;;;;6.43;5.65;;;14.90;99.90;;;;;;6210830;23;20024;-86
2022/05/08 19:57:52;;;;;;;8.95;6.90;;;14.90;99.90;;;;;;6233457;23;20028;-83
2022/05/08 20:00:40;;;;;;;7.43;5.57;;;14.80;99.90;;;;;;6216214;23;20024;-84
2022/05/08 20:03:28;;;;;;;6.88;5.88;;;14.80;99.90;;;;;;6241035;23;20035;-83
2022/05/08 20:06:15;;;;;;;6.78;6.05;;;14.60;99.90;;;;;;6241150;23;20083;-86
2022/05/08 20:09:03;;;;;;;9.05;7.25;;;14.50;99.90;;;;;;6237572;23;20024;-86
2022/05/08 20:11:53;;;;;;;10.77;7.15;;;14.40;99.90;;;;;;6216572;23;20025;-87
2022/05/08 20:14:43;;;;;;;8.43;6.97;;;14.30;99.90;;;;;;6238910;23;20024;-85
2022/05/08 20:17:31;;;;;;;9.15;6.88;;;14.30;99.90;;;;;;6232557;23;20051;-85
2022/05/08 20:23:28;;;;;;;10.75;7.47;;;14.10;99.90;;;;;;6227715;23;20086;-85
2022/05/08 20:26:16;;;;;;;9.00;7.22;;;14.00;99.90;;;;;;6203519;23;20059;-86
2022/05/08 20:29:03;;;;;;;8.40;7.05;;;13.90;99.90;;;;;;6185759;23;20024;-86
2022/05/08 20:31:54;;;;;;;9.77;7.00;;;13.80;99.90;;;;;;6226593;23;20039;-86
2022/05/08 20:34:43;;;;;;;9.30;6.65;;;13.80;99.90;;;;;;6200592;23;20024;-87
2022/05/08 20:37:31;;;;;;;8.55;6.43;;;13.90;99.90;;;;;;6180759;23;20440;-87
2022/05/08 20:40:18;;;;;;;7.75;6.38;;;13.80;99.90;;;;;;6216937;23;20296;-85
2022/05/08 20:43:07;;;;;;;11.02;7.00;;;13.80;99.90;;;;;;6199289;23;20079;-87
2022/05/08 20:45:58;;;;;;;9.30;6.35;;;13.70;99.90;;;;;;6197621;23;20025;-87
2022/05/08 20:48:45;;;;;;;8.88;6.50;;;13.80;99.90;;;;;;6200388;23;20315;-86
2022/05/08 20:51:38;;;;;;;7.82;6.10;;;13.90;99.90;;;;;;6225608;23;20024;-88
2022/05/08 20:54:28;;;;;;;10.40;6.80;;;13.90;99.90;;;;;;6233066;23;20020;-93
2022/05/08 20:57:23;;;;;;;7.07;6.13;;;13.90;99.90;;;;;;6212949;23;20031;-94
